createdAt,value
2022-11-06T00:00:11.416Z,2.299
2022-11-06T00:02:12.555Z,2.5
2022-11-06T00:03:10.273Z,2.200
2022-11-06T00:04:10.159Z,2.599
2022-11-06T00:05:10.487Z,2.099
2022-11-06T00:06:10.521Z,2.400
2022-11-06T00:07:10.637Z,2.5
2022-11-06T00:08:10.876Z,2.200
2022-11-06T00:09:10.634Z,2.299
2022-11-06T00:11:10.327Z,2.099
2022-11-06T00:12:10.880Z,2.299
2022-11-06T00:13:10.936Z,2.400
2022-11-06T00:14:10.278Z,2.200
2022-11-06T00:15:10.643Z,2.099
2022-11-06T00:16:10.929Z,2.200
2022-11-06T00:18:11.345Z,2.5
2022-11-06T00:19:10.815Z,2.299
2022-11-06T00:20:10.734Z,2.099
2022-11-06T00:21:10.744Z,2.5
2022-11-06T00:22:10.538Z,2.200
2022-11-06T00:23:10.665Z,2.400
2022-11-06T00:24:10.646Z,2.099
2022-11-06T00:25:10.752Z,2.400
2022-11-06T00:26:10.643Z,2.099
2022-11-06T00:27:10.452Z,2.599
2022-11-06T00:28:10.641Z,2.299
2022-11-06T00:30:10.744Z,2.200
2022-11-06T00:31:10.613Z,2.5
2022-11-06T00:32:10.523Z,2.299
2022-11-06T00:34:10.208Z,2.099
2022-11-06T00:36:10.735Z,2.400
2022-11-06T00:37:10.467Z,2.299
2022-11-06T00:38:10.441Z,2.200
2022-11-06T00:41:09.965Z,2.099
2022-11-06T00:42:10.511Z,2.299
2022-11-06T00:43:10.068Z,2.400
2022-11-06T00:44:10.526Z,2
2022-11-06T00:45:10.221Z,2.400
2022-11-06T00:46:10.016Z,2.299
2022-11-06T00:47:10.529Z,2.599
2022-11-06T00:48:10.679Z,2.200
2022-11-06T00:49:10.254Z,2.400
2022-11-06T00:51:10.726Z,2.099
2022-11-06T00:52:10.558Z,2.799
2022-11-06T00:53:10.164Z,2.299
2022-11-06T00:55:10.689Z,2.200
2022-11-06T00:56:10.569Z,2.299
2022-11-06T00:57:10.317Z,2.5
2022-11-06T00:58:10.156Z,2.200
2022-11-06T00:59:09.894Z,2.400
2022-11-06T01:01:11.272Z,2.299
2022-11-06T01:02:10.513Z,2.599
2022-11-06T01:03:11.388Z,2
2022-11-06T01:04:10.922Z,2.400
2022-11-06T01:05:11.027Z,2.5
2022-11-06T01:07:10.244Z,2.299
2022-11-06T01:08:10.683Z,2.099
2022-11-06T01:09:10.585Z,2.200
2022-11-06T01:10:10.706Z,2.299
2022-11-06T01:11:10.214Z,2.200
2022-11-06T01:12:13.656Z,2
2022-11-06T01:13:10.837Z,2.299
2022-11-06T01:14:10.843Z,2.200
2022-11-06T01:15:10.930Z,2.299
2022-11-06T01:16:10.970Z,2.400
2022-11-06T01:17:10.742Z,2.299
2022-11-06T01:18:11.053Z,2.599
2022-11-06T01:19:10.167Z,2.700
2022-11-06T01:20:10.946Z,2.400
2022-11-06T01:21:10.672Z,2.200
2022-11-06T01:22:10.527Z,2.299
2022-11-06T01:23:09.882Z,2.200
2022-11-06T01:24:10.765Z,2.299
2022-11-06T01:25:11.136Z,2.400
2022-11-06T01:26:10.297Z,2.5
2022-11-06T01:27:26.933Z,2.200
2022-11-06T01:28:10.850Z,2.299
2022-11-06T01:31:10.206Z,2.099
2022-11-06T01:32:10.151Z,2.5
2022-11-06T01:33:10.096Z,2.299
2022-11-06T01:34:10.959Z,2.200
2022-11-06T01:35:10.546Z,2.400
2022-11-06T01:36:10.308Z,2.299
2022-11-06T01:37:13.248Z,2.200
2022-11-06T01:38:10.150Z,2
2022-11-06T01:39:10.976Z,2.400
2022-11-06T01:40:10.771Z,2.099
2022-11-06T01:42:10.342Z,1.899
2022-11-06T01:43:10.033Z,2.099
2022-11-06T01:45:10.350Z,2.200
2022-11-06T01:48:10.921Z,2
2022-11-06T01:49:10.590Z,2.200
2022-11-06T01:50:10.600Z,2.299
2022-11-06T01:51:10.186Z,2
2022-11-06T01:52:10.886Z,1.899
2022-11-06T01:53:10.616Z,2
2022-11-06T01:55:10.886Z,2.200
2022-11-06T01:56:10.521Z,2.299
2022-11-06T01:57:09.952Z,2.400
2022-11-06T01:59:10.196Z,2.299
2022-11-06T02:00:10.242Z,2.099
2022-11-06T02:01:10.295Z,2.200
2022-11-06T02:02:10.181Z,2.400
2022-11-06T02:03:10.700Z,2.099
2022-11-06T02:04:11.206Z,2
2022-11-06T02:05:10.390Z,2.5
2022-11-06T02:06:10.176Z,2.099
2022-11-06T02:07:10.509Z,2.200
2022-11-06T02:09:10.740Z,2.099
2022-11-06T02:10:10.699Z,2.400
2022-11-06T02:11:10.395Z,2.200
2022-11-06T02:12:10.474Z,2.099
2022-11-06T02:13:10.688Z,2.299
2022-11-06T02:15:10.586Z,2.099
2022-11-06T02:16:10.594Z,2.200
2022-11-06T02:17:10.299Z,2.299
2022-11-06T02:18:10.527Z,2.200
2022-11-06T02:20:10.452Z,2.5
2022-11-06T02:22:10.234Z,2.200
2022-11-06T02:23:10.689Z,2.099
2022-11-06T02:24:10.647Z,2.400
2022-11-06T02:25:10.811Z,2.299
2022-11-06T02:26:10.805Z,1.899
2022-11-06T02:27:10.545Z,2.200
2022-11-06T02:28:10.830Z,2.400
2022-11-06T02:29:09.980Z,2.099
2022-11-06T02:30:10.917Z,2
2022-11-06T02:31:10.262Z,2.099
2022-11-06T02:32:09.778Z,2
2022-11-06T02:33:10.557Z,1.899
2022-11-06T02:34:10.278Z,2
2022-11-06T02:35:11.222Z,2.200
2022-11-06T02:36:10.496Z,2.299
2022-11-06T02:39:10.204Z,2
2022-11-06T02:40:11.195Z,1.899
2022-11-06T02:41:10.347Z,2
2022-11-06T02:42:10.249Z,2.099
2022-11-06T02:43:10.565Z,2
2022-11-06T02:46:10.384Z,1.799
2022-11-06T02:47:10.839Z,1.700
2022-11-06T02:48:11.263Z,1.799
2022-11-06T02:49:10.029Z,1.899
2022-11-06T02:50:11.008Z,1.799
2022-11-06T02:53:10.664Z,1.899
2022-11-06T02:54:10.435Z,2.200
2022-11-06T02:55:10.409Z,1.600
2022-11-06T02:56:10.123Z,1.799
2022-11-06T02:57:09.977Z,2
2022-11-06T02:58:11.063Z,1.700
2022-11-06T02:59:10.622Z,1.600
2022-11-06T03:00:11.145Z,1.899
2022-11-06T03:01:10.330Z,2.099
2022-11-06T03:02:10.024Z,1.700
2022-11-06T03:04:10.676Z,1.799
2022-11-06T03:06:10.391Z,2
2022-11-06T03:09:10.330Z,1.600
2022-11-06T03:10:10.099Z,1.799
2022-11-06T03:11:10.296Z,1.600
2022-11-06T03:12:09.994Z,1.799
2022-11-06T03:14:10.688Z,1.600
2022-11-06T03:15:10.357Z,1.700
2022-11-06T03:16:10.048Z,1.5
2022-11-06T03:17:10.249Z,2.200
2022-11-06T03:18:10.605Z,1.799
2022-11-06T03:19:10.671Z,1.700
2022-11-06T03:21:10.505Z,1.600
2022-11-06T03:22:10.109Z,1.799
2022-11-06T03:23:10.589Z,2.099
2022-11-06T03:24:10.389Z,1.399
2022-11-06T03:25:10.081Z,2.099
2022-11-06T03:26:10.663Z,1.700
2022-11-06T03:27:10.299Z,1.600
2022-11-06T03:28:09.883Z,1.399
2022-11-06T03:29:10.202Z,1.600
2022-11-06T03:32:10.220Z,1.299
2022-11-06T03:33:10.734Z,1.799
2022-11-06T03:34:10.423Z,1.399
2022-11-06T03:36:11.007Z,1.5
2022-11-06T03:39:10.269Z,1.299
2022-11-06T03:41:10.612Z,1.799
2022-11-06T03:42:10.231Z,1.399
2022-11-06T03:43:10.300Z,1.5
2022-11-06T03:44:10.084Z,1.299
2022-11-06T03:45:10.191Z,1.700
2022-11-06T03:46:09.883Z,1.5
2022-11-06T03:50:10.523Z,1.399
2022-11-06T03:51:10.118Z,1.200
2022-11-06T03:52:10.670Z,1.5
2022-11-06T03:53:10.012Z,1.399
2022-11-06T03:54:10.472Z,1.5
2022-11-06T03:56:11.007Z,1.100
2022-11-06T03:57:10.572Z,1.799
2022-11-06T03:58:10.607Z,1.299
2022-11-06T03:59:10.777Z,1.5
2022-11-06T04:00:11.088Z,1.299
2022-11-06T04:02:10.331Z,1.5
2022-11-06T04:03:10.481Z,1.299
2022-11-06T04:04:10.030Z,1.399
2022-11-06T04:06:10.569Z,1.799
2022-11-06T04:07:10.212Z,1.5
2022-11-06T04:08:11.036Z,1.299
2022-11-06T04:10:10.464Z,1.5
2022-11-06T04:11:10.251Z,1.600
2022-11-06T04:12:10.290Z,1.5
2022-11-06T04:13:10.709Z,1.200
2022-11-06T04:14:10.803Z,1.299
2022-11-06T04:17:10.356Z,1.600
2022-11-06T04:19:10.352Z,1.799
2022-11-06T04:21:10.817Z,1.700
2022-11-06T04:23:10.293Z,1.600
2022-11-06T04:24:10.656Z,1.399
2022-11-06T04:25:10.163Z,1.5
2022-11-06T04:26:10.189Z,1.600
2022-11-06T04:27:10.518Z,1.700
2022-11-06T04:28:10.602Z,1.399
2022-11-06T04:29:10.432Z,1.600
2022-11-06T04:31:10.506Z,1.5
2022-11-06T04:32:10.358Z,1.600
2022-11-06T04:35:10.347Z,2.099
2022-11-06T04:36:10.453Z,2
2022-11-06T04:38:10.985Z,1.899
2022-11-06T04:39:10.250Z,2.099
2022-11-06T04:40:11.179Z,1.600
2022-11-06T04:41:10.590Z,1.399
2022-11-06T04:42:10.348Z,1.700
2022-11-06T04:45:10.377Z,2
2022-11-06T04:46:10.181Z,1.799
2022-11-06T04:47:10.917Z,2
2022-11-06T04:48:11.021Z,1.700
2022-11-06T04:49:10.782Z,1.899
2022-11-06T04:50:10.665Z,2
2022-11-06T04:52:10.162Z,1.299
2022-11-06T04:53:10.731Z,1.5
2022-11-06T04:55:10.349Z,2.099
2022-11-06T04:56:10.259Z,2
2022-11-06T04:57:10.313Z,1.899
2022-11-06T04:59:10.804Z,1.700
2022-11-06T05:00:11.475Z,1.899
2022-11-06T05:02:11.040Z,1.799
2022-11-06T05:03:10.269Z,2
2022-11-06T05:04:10.340Z,1.799
2022-11-06T05:05:10.213Z,1.299
2022-11-06T05:06:10.524Z,1.5
2022-11-06T05:07:10.330Z,1.600
2022-11-06T05:08:11.008Z,2.200
2022-11-06T05:09:10.294Z,1.799
2022-11-06T05:11:10.536Z,1.700
2022-11-06T05:12:10.295Z,1.600
2022-11-06T05:14:10.858Z,1.5
2022-11-06T05:15:10.541Z,1.600
2022-11-06T05:16:10.523Z,1.899
2022-11-06T05:17:10.365Z,2
2022-11-06T05:18:10.775Z,1.799
2022-11-06T05:19:10.208Z,2
2022-11-06T05:20:10.813Z,1.700
2022-11-06T05:24:10.337Z,2
2022-11-06T05:25:11.045Z,1.899
2022-11-06T05:26:10.284Z,1.700
2022-11-06T05:27:10.302Z,1.5
2022-11-06T05:28:10.458Z,1.799
2022-11-06T05:29:10.509Z,1.700
2022-11-06T05:30:10.714Z,1.799
2022-11-06T05:31:10.675Z,2
2022-11-06T05:32:10.684Z,1.799
2022-11-06T05:33:10.384Z,2.099
2022-11-06T05:34:10.021Z,1.799
2022-11-06T05:35:10.168Z,2
2022-11-06T05:36:10.905Z,1.899
2022-11-06T05:37:10.776Z,2.099
2022-11-06T05:38:10.886Z,1.600
2022-11-06T05:39:10.671Z,1.799
2022-11-06T05:40:10.466Z,1.700
2022-11-06T05:41:10.233Z,2
2022-11-06T05:43:10.731Z,1.899
2022-11-06T05:44:10.665Z,2.099
2022-11-06T05:45:10.745Z,2
2022-11-06T05:46:29.590Z,1.700
2022-11-06T05:50:10.781Z,2
2022-11-06T05:51:10.363Z,2.400
2022-11-06T05:52:10.287Z,1.799
2022-11-06T05:53:10.718Z,1.899
2022-11-06T05:54:10.720Z,1.700
2022-11-06T05:55:14.742Z,2.200
2022-11-06T05:56:10.656Z,1.600
2022-11-06T05:57:10.357Z,1.5
2022-11-06T05:58:10.863Z,1.899
2022-11-06T06:00:10.805Z,2
2022-11-06T06:01:10.489Z,1.700
2022-11-06T06:02:10.253Z,2
2022-11-06T06:03:10.883Z,2.200
2022-11-06T06:04:10.736Z,2.099
2022-11-06T06:05:10.399Z,2
2022-11-06T06:07:10.715Z,2.099
2022-11-06T06:08:11.245Z,2
2022-11-06T06:09:10.501Z,1.799
2022-11-06T06:10:10.392Z,2
2022-11-06T06:11:10.994Z,1.799
2022-11-06T06:12:10.366Z,1.700
2022-11-06T06:13:10.667Z,2
2022-11-06T06:14:10.454Z,2.5
2022-11-06T06:15:10.082Z,2.299
2022-11-06T06:16:10.834Z,2.099
2022-11-06T06:19:10.215Z,2.299
2022-11-06T06:20:10.233Z,1.700
2022-11-06T06:21:09.977Z,2.200
2022-11-06T06:22:10.597Z,1.899
2022-11-06T06:24:10.925Z,1.700
2022-11-06T06:25:21.435Z,2.099
2022-11-06T06:26:10.365Z,1.899
2022-11-06T06:27:10.833Z,2.099
2022-11-06T06:29:09.721Z,1.700
2022-11-06T06:31:10.558Z,2
2022-11-06T06:32:10.325Z,2.200
2022-11-06T06:33:10.664Z,1.700
2022-11-06T06:36:10.702Z,1.799
2022-11-06T06:37:10.418Z,1.700
2022-11-06T06:39:10.531Z,1.799
2022-11-06T06:40:10.523Z,1.700
2022-11-06T06:41:10.885Z,2.099
2022-11-06T06:42:10.894Z,2.200
2022-11-06T06:43:10.449Z,2
2022-11-06T06:44:10.273Z,2.099
2022-11-06T06:45:11.120Z,2
2022-11-06T06:47:10.988Z,2.299
2022-11-06T06:48:10.555Z,2.099
2022-11-06T06:49:09.970Z,1.799
2022-11-06T06:51:10.922Z,1.899
2022-11-06T06:52:10.892Z,2
2022-11-06T06:54:10.865Z,1.899
2022-11-06T06:55:10.744Z,2.299
2022-11-06T06:57:10.559Z,2.5
2022-11-06T06:58:16.620Z,2.299
2022-11-06T06:59:11.225Z,2.200
2022-11-06T07:00:10.863Z,2.299
2022-11-06T07:01:10.045Z,2.099
2022-11-06T07:02:10.741Z,2.299
2022-11-06T07:04:10.084Z,2.099
2022-11-06T07:05:10.311Z,2.200
2022-11-06T07:06:10.099Z,2.400
2022-11-06T07:08:11.132Z,2.200
2022-11-06T07:09:10.093Z,2.299
2022-11-06T07:10:10.643Z,2.099
2022-11-06T07:11:09.939Z,2.299
2022-11-06T07:12:10.486Z,2.599
2022-11-06T07:13:10.379Z,2.700
2022-11-06T07:14:10.683Z,2.200
2022-11-06T07:15:09.989Z,2.099
2022-11-06T07:16:10.753Z,2.599
2022-11-06T07:17:10.372Z,2.400
2022-11-06T07:18:10.279Z,2.299
2022-11-06T07:19:10.695Z,2.200
2022-11-06T07:20:10.583Z,2.299
2022-11-06T07:22:10.450Z,2.200
2022-11-06T07:23:10.360Z,2.5
2022-11-06T07:24:10.194Z,2.099
2022-11-06T07:28:10.376Z,2.299
2022-11-06T07:32:10.586Z,2.200
2022-11-06T07:33:09.987Z,1.899
2022-11-06T07:34:10.671Z,2
2022-11-06T07:35:10.198Z,2.200
2022-11-06T07:36:10.837Z,2.599
2022-11-06T07:37:10.033Z,2.400
2022-11-06T07:38:10.948Z,2.299
2022-11-06T07:39:10.246Z,2.400
2022-11-06T07:41:10.601Z,2.5
2022-11-06T07:42:10.243Z,2.099
2022-11-06T07:43:10.051Z,2.299
2022-11-06T07:44:10.888Z,2.200
2022-11-06T07:45:10.088Z,2.400
2022-11-06T07:46:09.923Z,2.5
2022-11-06T07:48:10.063Z,2.299
2022-11-06T07:49:10.372Z,1.899
2022-11-06T07:50:10.323Z,2.200
2022-11-06T07:51:10.633Z,1.700
2022-11-06T07:52:10.496Z,2.200
2022-11-06T07:53:10.101Z,1.799
2022-11-06T07:54:10.463Z,2.5
2022-11-06T07:55:10.798Z,2.299
2022-11-06T07:56:10.652Z,2.799
2022-11-06T07:57:10.268Z,2.200
2022-11-06T07:58:10.024Z,2.099
2022-11-06T07:59:10.171Z,2.400
2022-11-06T08:00:11.609Z,2.299
2022-11-06T08:01:15.395Z,2.099
2022-11-06T08:02:10.662Z,2.200
2022-11-06T08:07:10.776Z,2.799
2022-11-06T08:08:10.402Z,2.299
2022-11-06T08:10:09.959Z,2.400
2022-11-06T08:11:10.142Z,2.599
2022-11-06T08:12:10.753Z,2.400
2022-11-06T08:13:10.431Z,2.200
2022-11-06T08:14:10.141Z,2.099
2022-11-06T08:15:10.568Z,2.200
2022-11-06T08:16:10.431Z,2
2022-11-06T08:17:11.027Z,2.099
2022-11-06T08:18:10.992Z,2
2022-11-06T08:19:10.509Z,2.299
2022-11-06T08:20:10.402Z,2.200
2022-11-06T08:21:10.233Z,2.299
2022-11-06T08:22:10.353Z,2.099
2022-11-06T08:27:10.693Z,1.899
2022-11-06T08:28:10.522Z,1.700
2022-11-06T08:29:10.685Z,1.799
2022-11-06T08:30:10.306Z,1.899
2022-11-06T08:31:10.435Z,2.099
2022-11-06T08:32:10.328Z,2.200
2022-11-06T08:33:10.805Z,1.899
2022-11-06T08:34:10.288Z,2.200
2022-11-06T08:35:10.760Z,2.299
2022-11-06T08:36:10.279Z,2.099
2022-11-06T08:37:10.735Z,2.200
2022-11-06T08:39:10.824Z,1.899
2022-11-06T08:40:10.481Z,2.200
2022-11-06T08:41:10.369Z,2.299
2022-11-06T08:42:09.964Z,2
2022-11-06T08:44:10.261Z,2.200
2022-11-06T08:45:10.279Z,2.099
2022-11-06T08:48:18.009Z,1.799
2022-11-06T08:49:10.764Z,2
2022-11-06T08:51:10.301Z,1.700
2022-11-06T08:52:10.109Z,1.899
2022-11-06T08:53:11.096Z,1.799
2022-11-06T08:54:10.688Z,2
2022-11-06T08:55:10.440Z,1.899
2022-11-06T08:56:10.227Z,1.799
2022-11-06T08:57:10.885Z,1.899
2022-11-06T08:58:10.761Z,2.099
2022-11-06T08:59:10.314Z,1.899
2022-11-06T09:00:10.434Z,2.099
2022-11-06T09:01:10.774Z,2
2022-11-06T09:02:10.767Z,1.799
2022-11-06T09:03:10.716Z,2
2022-11-06T09:04:10.281Z,1.899
2022-11-06T09:05:10.794Z,2.099
2022-11-06T09:06:10.515Z,1.799
2022-11-06T09:07:10.150Z,1.700
2022-11-06T09:08:24.899Z,1.899
2022-11-06T09:09:10.275Z,1.799
2022-11-06T09:10:10.322Z,2.099
2022-11-06T09:11:10.867Z,1.799
2022-11-06T09:12:10.532Z,2.099
2022-11-06T09:13:10.478Z,2
2022-11-06T09:15:10.120Z,1.700
2022-11-06T09:16:15.391Z,1.799
2022-11-06T09:17:10.577Z,1.5
2022-11-06T09:19:10.784Z,2
2022-11-06T09:20:10.501Z,1.799
2022-11-06T09:21:10.210Z,2.099
2022-11-06T09:22:10.698Z,1.600
2022-11-06T09:23:10.894Z,2
2022-11-06T09:24:10.571Z,2.099
2022-11-06T09:25:10.177Z,1.799
2022-11-06T09:26:10.614Z,2.099
2022-11-06T09:27:10.447Z,2
2022-11-06T09:28:10.082Z,1.899
2022-11-06T09:29:10.521Z,2
2022-11-06T09:30:10.341Z,1.899
2022-11-06T09:33:13.489Z,2.099
2022-11-06T09:34:10.653Z,1.799
2022-11-06T09:35:10.079Z,1.600
2022-11-06T09:36:10.830Z,1.899
2022-11-06T09:37:10.585Z,2.200
2022-11-06T09:38:10.285Z,2
2022-11-06T09:39:10.802Z,1.700
2022-11-06T09:40:10.667Z,1.899
2022-11-06T09:41:10.023Z,1.799
2022-11-06T09:43:11.164Z,1.899
2022-11-06T09:45:10.350Z,1.700
2022-11-06T09:46:10.357Z,1.899
2022-11-06T09:47:10.440Z,1.700
2022-11-06T09:48:09.955Z,1.799
2022-11-06T09:49:10.120Z,1.899
2022-11-06T09:50:10.672Z,1.700
2022-11-06T09:51:10.133Z,1.799
2022-11-06T09:52:10.255Z,1.899
2022-11-06T09:53:10.795Z,2
2022-11-06T09:54:10.278Z,1.700
2022-11-06T09:55:10.477Z,1.600
2022-11-06T09:56:10.454Z,1.700
2022-11-06T09:57:09.965Z,1.600
2022-11-06T10:02:10.237Z,1.700
2022-11-06T10:03:10.446Z,1.899
2022-11-06T10:04:10.707Z,1.700
2022-11-06T10:05:10.392Z,1.600
2022-11-06T10:06:10.197Z,1.899
2022-11-06T10:07:10.605Z,1.799
2022-11-06T10:08:10.693Z,1.899
2022-11-06T10:09:10.868Z,1.799
2022-11-06T10:11:10.548Z,1.600
2022-11-06T10:13:14.819Z,2
2022-11-06T10:14:10.700Z,1.700
2022-11-06T10:15:10.770Z,1.5
2022-11-06T10:16:10.482Z,1.799
2022-11-06T10:17:09.950Z,1.600
2022-11-06T10:18:11.238Z,1.700
2022-11-06T10:19:10.464Z,1.600
2022-11-06T10:20:10.301Z,1.799
2022-11-06T10:21:09.984Z,2
2022-11-06T10:22:10.450Z,1.600
2022-11-06T10:24:10.838Z,1.899
2022-11-06T10:26:10.457Z,1.700
2022-11-06T10:27:10.300Z,1.899
2022-11-06T10:28:09.885Z,1.799
2022-11-06T10:29:09.998Z,1.600
2022-11-06T10:30:10.990Z,1.700
2022-11-06T10:31:10.502Z,1.600
2022-11-06T10:32:10.245Z,1.899
2022-11-06T10:34:10.778Z,1.799
2022-11-06T10:35:10.740Z,1.700
2022-11-06T10:36:10.693Z,1.600
2022-11-06T10:37:10.507Z,1.700
2022-11-06T10:38:10.633Z,1.5
2022-11-06T10:39:10.220Z,1.600
2022-11-06T10:40:10.163Z,1.700
2022-11-06T10:41:10.720Z,1.899
2022-11-06T10:42:10.598Z,1.600
2022-11-06T10:43:10.658Z,1.700
2022-11-06T10:45:10.935Z,1.600
2022-11-06T10:47:10.642Z,1.899
2022-11-06T10:48:11.795Z,2
2022-11-06T10:49:10.622Z,1.600
2022-11-06T10:50:10.497Z,1.899
2022-11-06T10:52:10.605Z,1.700
2022-11-06T10:55:10.362Z,1.5
2022-11-06T10:56:11.380Z,1.700
2022-11-06T10:57:10.328Z,2
2022-11-06T10:58:10.342Z,1.899
2022-11-06T10:59:10.319Z,1.700
2022-11-06T11:00:10.758Z,1.799
2022-11-06T11:01:10.082Z,1.899
2022-11-06T11:02:10.133Z,1.799
2022-11-06T11:03:10.623Z,1.600
2022-11-06T11:04:10.724Z,1.799
2022-11-06T11:05:10.803Z,1.899
2022-11-06T11:07:10.347Z,2
2022-11-06T11:09:10.074Z,1.799
2022-11-06T11:10:10.181Z,2.099
2022-11-06T11:11:10.531Z,1.600
2022-11-06T11:16:10.762Z,1.700
2022-11-06T11:17:11.016Z,1.899
2022-11-06T11:18:11.111Z,1.799
2022-11-06T11:19:10.046Z,1.700
2022-11-06T11:20:10.648Z,1.600
2022-11-06T11:21:10.252Z,1.700
2022-11-06T11:22:10.070Z,1.799
2022-11-06T11:23:10.824Z,1.700
2022-11-06T11:24:09.996Z,1.799
2022-11-06T11:25:10.841Z,1.700
2022-11-06T11:26:10.947Z,1.600
2022-11-06T11:27:10.446Z,1.700
2022-11-06T11:29:10.448Z,1.899
2022-11-06T11:31:10.666Z,1.799
2022-11-06T11:32:10.606Z,1.700
2022-11-06T11:33:10.282Z,1.799
2022-11-06T11:34:10.275Z,2
2022-11-06T11:35:10.341Z,1.799
2022-11-06T11:36:10.111Z,1.700
2022-11-06T11:37:10.647Z,1.600
2022-11-06T11:38:11.030Z,1.700
2022-11-06T11:39:10.744Z,1.799
2022-11-06T11:40:13.427Z,1.600
2022-11-06T11:41:10.704Z,1.399
2022-11-06T11:43:10.604Z,1.799
2022-11-06T11:44:10.517Z,1.600
2022-11-06T11:45:10.609Z,1.299
2022-11-06T11:46:10.625Z,1.399
2022-11-06T11:47:10.682Z,1.600
2022-11-06T11:49:10.598Z,1.5
2022-11-06T11:50:10.575Z,1.399
2022-11-06T11:52:10.234Z,1.700
2022-11-06T11:53:10.798Z,1.600
2022-11-06T11:54:10.659Z,1.299
2022-11-06T11:55:10.350Z,1.399
2022-11-06T11:56:10.584Z,1.600
2022-11-06T11:57:10.363Z,1.399
2022-11-06T11:59:10.750Z,1.600
2022-11-06T12:00:10.982Z,1.399
2022-11-06T12:02:11.038Z,1.600
2022-11-06T12:03:10.200Z,1.399
2022-11-06T12:07:10.486Z,1.5
2022-11-06T12:08:11.096Z,1.600
2022-11-06T12:09:10.815Z,1.5
2022-11-06T12:10:10.761Z,1.600
2022-11-06T12:11:10.452Z,1.5
2022-11-06T12:12:10.121Z,1.600
2022-11-06T12:13:10.739Z,1.5
2022-11-06T12:14:10.808Z,1.399
2022-11-06T12:15:11.038Z,1.700
2022-11-06T12:16:10.067Z,1.5
2022-11-06T12:17:10.440Z,1.200
2022-11-06T12:18:10.516Z,1.5
2022-11-06T12:19:10.930Z,1.399
2022-11-06T12:20:10.964Z,1.600
2022-11-06T12:21:09.757Z,1.399
2022-11-06T12:23:10.802Z,1.600
2022-11-06T12:25:10.687Z,1.799
2022-11-06T12:27:10.212Z,1.700
2022-11-06T12:28:10.844Z,1.600
2022-11-06T12:29:10.001Z,1.700
2022-11-06T12:32:11.008Z,1.899
2022-11-06T12:33:10.704Z,1.600
2022-11-06T12:34:16.031Z,1.5
2022-11-06T12:36:10.956Z,1.700
2022-11-06T12:37:10.811Z,1.5
2022-11-06T12:39:10.801Z,1.799
2022-11-06T12:41:10.126Z,1.700
2022-11-06T12:42:11.048Z,1.600
2022-11-06T12:43:10.914Z,1.399
2022-11-06T12:44:10.930Z,1.600
2022-11-06T12:45:10.662Z,1.5
2022-11-06T12:47:10.345Z,1.600
2022-11-06T12:48:09.926Z,1.700
2022-11-06T12:50:10.906Z,1.399
2022-11-06T12:51:10.481Z,1.5
2022-11-06T12:52:10.054Z,1.700
2022-11-06T12:53:10.593Z,1.399
2022-11-06T12:54:10.439Z,1.600
2022-11-06T12:55:11.266Z,1.799
2022-11-06T12:56:10.345Z,1.700
2022-11-06T12:57:10.413Z,1.600
2022-11-06T12:59:10.976Z,1.700
2022-11-06T13:00:11.531Z,1.5
2022-11-06T13:02:10.491Z,1.299
2022-11-06T13:04:10.431Z,1.399
2022-11-06T13:07:10.258Z,1.700
2022-11-06T13:08:10.412Z,1.399
2022-11-06T13:09:11.072Z,1.600
2022-11-06T13:11:10.858Z,1.299
2022-11-06T13:12:10.811Z,1.399
2022-11-06T13:14:10.555Z,1.5
2022-11-06T13:15:10.577Z,1.600
2022-11-06T13:16:10.818Z,1.399
2022-11-06T13:17:10.506Z,1.5
2022-11-06T13:18:10.464Z,1.600
2022-11-06T13:19:10.824Z,1.700
2022-11-06T13:21:10.911Z,1.399
2022-11-06T13:22:10.938Z,1.700
2022-11-06T13:23:10.329Z,1.799
2022-11-06T13:24:10.210Z,1.5
2022-11-06T13:25:11.284Z,1.200
2022-11-06T13:26:10.399Z,1.5
2022-11-06T13:27:11.217Z,1.700
2022-11-06T13:28:10.336Z,1.5
2022-11-06T13:29:10.776Z,1.399
2022-11-06T13:30:15.723Z,1.5
2022-11-06T13:31:10.653Z,1.399
2022-11-06T13:32:10.356Z,1.899
2022-11-06T13:33:10.624Z,1.399
2022-11-06T13:34:10.710Z,1.5
2022-11-06T13:35:10.773Z,1.600
2022-11-06T13:36:11.015Z,1.5
2022-11-06T13:38:10.118Z,1.600
2022-11-06T13:39:10.620Z,1.5
2022-11-06T13:40:10.826Z,1.399
2022-11-06T13:41:10.507Z,1.700
2022-11-06T13:42:10.532Z,1.5
2022-11-06T13:44:10.415Z,1.600
2022-11-06T13:45:10.223Z,1.799
2022-11-06T13:46:10.134Z,1.399
2022-11-06T13:47:10.552Z,1.5
2022-11-06T13:49:10.943Z,1.399
2022-11-06T13:50:11.116Z,1.600
2022-11-06T13:51:10.722Z,1.399
2022-11-06T13:53:10.995Z,1.600
2022-11-06T13:54:10.352Z,1.299
2022-11-06T13:55:11.141Z,1.600
2022-11-06T13:57:10.251Z,1.700
2022-11-06T13:58:10.173Z,1.600
2022-11-06T14:01:10.942Z,1.399
2022-11-06T14:05:10.723Z,1.299
2022-11-06T14:08:12.258Z,1.600
2022-11-06T14:10:10.816Z,1.299
2022-11-06T14:11:11.364Z,1.5
2022-11-06T14:12:14.922Z,1.799
2022-11-06T14:13:11.582Z,1.700
2022-11-06T14:14:11.132Z,1.799
2022-11-06T14:17:12.001Z,1.700
2022-11-06T14:18:11.538Z,1.5
2022-11-06T14:20:11.549Z,1.299
2022-11-06T14:21:10.941Z,1.600
2022-11-06T14:22:10.865Z,1.200
2022-11-06T14:23:11.599Z,1.700
2022-11-06T14:24:11.076Z,1.600
2022-11-06T14:25:10.920Z,1.399
2022-11-06T14:26:10.779Z,1.299
2022-11-06T14:27:11.333Z,1.200
2022-11-06T14:28:11.257Z,1.5
2022-11-06T14:29:11.092Z,1.200
2022-11-06T14:31:13.164Z,1.200
2022-11-06T14:32:10.766Z,1.299
2022-11-06T14:33:10.980Z,1.399
2022-11-06T14:34:10.681Z,1.200
2022-11-06T14:37:11.223Z,1.399
2022-11-06T14:38:11.432Z,1.200
2022-11-06T14:39:11.109Z,1.100
2022-11-06T14:42:11.434Z,1.5
2022-11-06T14:43:10.950Z,1.100
2022-11-06T14:45:11.513Z,1.299
2022-11-06T14:47:10.626Z,1.200
2022-11-06T14:48:14.308Z,1.399
2022-11-06T14:49:11.117Z,1.299
2022-11-06T14:50:10.721Z,1.100
2022-11-06T14:51:10.780Z,1.200
2022-11-06T14:52:11.050Z,1.299
2022-11-06T14:54:11.654Z,1.399
2022-11-06T14:55:11.139Z,1.5
2022-11-06T14:56:11.237Z,1.299
2022-11-06T14:57:11.162Z,1.399
2022-11-06T14:58:11.103Z,1.5
2022-11-06T14:59:11.516Z,1.399
2022-11-06T15:01:11.388Z,1.5
2022-11-06T15:04:10.812Z,1.700
2022-11-06T15:05:11.329Z,1.399
2022-11-06T15:06:11.089Z,1.5
2022-11-06T15:07:10.726Z,1.600
2022-11-06T15:08:11.188Z,1.5
2022-11-06T15:10:10.641Z,1.399
2022-11-06T15:11:10.619Z,1.700
2022-11-06T15:12:11.203Z,1.399
2022-11-06T15:13:10.790Z,1.700
2022-11-06T15:14:11.930Z,1.399
2022-11-06T15:15:10.733Z,1.299
2022-11-06T15:16:10.363Z,1.600
2022-11-06T15:17:10.808Z,1.399
2022-11-06T15:18:11.173Z,1.299
2022-11-06T15:19:10.717Z,1.100
2022-11-06T15:20:11.145Z,1.200
2022-11-06T15:21:10.566Z,1.600
2022-11-06T15:22:11.122Z,1.5
2022-11-06T15:23:10.781Z,1.399
2022-11-06T15:25:11.096Z,1.5
2022-11-06T15:26:10.764Z,1.200
2022-11-06T15:27:11.191Z,1.5
2022-11-06T15:28:11.089Z,1.399
2022-11-06T15:30:11.045Z,1.600
2022-11-06T15:31:10.732Z,1.5
2022-11-06T15:32:10.813Z,1.399
2022-11-06T15:33:11.412Z,1.700
2022-11-06T15:34:11.217Z,1.600
2022-11-06T15:35:10.926Z,1.399
2022-11-06T15:36:10.608Z,1.799
2022-11-06T15:37:11.297Z,1.700
2022-11-06T15:38:11.284Z,1.200
2022-11-06T15:39:10.998Z,1.600
2022-11-06T15:41:10.616Z,1.399
2022-11-06T15:42:11.181Z,1.600
2022-11-06T15:43:11.022Z,1.5
2022-11-06T15:44:11.176Z,1.600
2022-11-06T15:46:11.002Z,1.700
2022-11-06T15:48:10.565Z,1.5
2022-11-06T15:50:10.863Z,1.899
2022-11-06T15:51:11.269Z,2.099
2022-11-06T15:52:10.766Z,2.900
2022-11-06T15:53:11.889Z,2.700
2022-11-06T15:54:11.001Z,3.700
2022-11-06T15:55:11.385Z,2.5
2022-11-06T15:56:10.901Z,2.400
2022-11-06T15:57:10.603Z,2.299
2022-11-06T15:59:14.936Z,1.899
2022-11-06T16:00:10.926Z,1.600
2022-11-06T16:01:10.175Z,1.899
2022-11-06T16:02:10.536Z,2.5
2022-11-06T16:03:11.186Z,2.400
2022-11-06T16:04:15.421Z,2.200
2022-11-06T16:05:18.688Z,2.5
2022-11-06T16:06:10.365Z,2.400
2022-11-06T16:07:18.130Z,2.200
2022-11-06T16:09:10.587Z,2.599
2022-11-06T16:10:10.626Z,2.299
2022-11-06T16:11:18.743Z,1.899
2022-11-06T16:12:10.225Z,2.099
2022-11-06T16:13:10.751Z,2
2022-11-06T16:14:10.254Z,1.799
2022-11-06T16:15:10.279Z,1.899
2022-11-06T16:16:10.306Z,2
2022-11-06T16:17:10.163Z,1.700
2022-11-06T16:19:10.086Z,2.099
2022-11-06T16:20:10.171Z,2.200
2022-11-06T16:21:23.862Z,2
2022-11-06T16:22:10.241Z,2.599
2022-11-06T16:23:10.538Z,2.200
2022-11-06T16:24:09.945Z,2.099
2022-11-06T16:25:10.911Z,2.400
2022-11-06T16:26:10.564Z,2.099
2022-11-06T16:28:10.051Z,1.799
2022-11-06T16:29:10.538Z,2.200
2022-11-06T16:30:10.557Z,2.400